createdAt,value
2017-06-23T00:01:31.667Z,67.70
2017-06-23T00:03:57.948Z,68.00
2017-06-23T00:06:24.186Z,67.70
2017-06-23T00:08:50.610Z,67.50
2017-06-23T00:11:16.847Z,67.50
2017-06-23T00:13:43.091Z,67.80
2017-06-23T00:17:36.277Z,68.30
2017-06-23T00:20:02.547Z,67.70
2017-06-23T00:22:28.804Z,68.00
2017-06-23T00:24:55.207Z,67.00
2017-06-23T00:27:21.450Z,68.40
2017-06-23T00:29:47.728Z,67.20
2017-06-23T00:32:14.992Z,67.20
2017-06-23T00:34:41.251Z,67.90
2017-06-23T00:37:07.509Z,66.90
2017-06-23T00:39:33.927Z,67.40
2017-06-23T00:42:00.176Z,67.90
2017-06-23T00:44:26.423Z,67.10
2017-06-23T00:46:52.828Z,67.10
2017-06-23T00:49:19.075Z,67.10
2017-06-23T00:51:45.327Z,66.40
2017-06-23T00:54:11.692Z,66.50
2017-06-23T00:56:37.936Z,66.60
2017-06-23T00:59:04.178Z,67.40
2017-06-23T01:01:30.603Z,66.80
2017-06-23T01:03:56.858Z,66.80
2017-06-23T01:06:23.134Z,67.00
2017-06-23T01:08:49.535Z,66.60
2017-06-23T01:11:15.804Z,66.10
2017-06-23T01:13:42.078Z,66.20
2017-06-23T01:17:35.952Z,66.10
2017-06-23T01:20:02.224Z,66.50
2017-06-23T01:22:28.479Z,66.30
2017-06-23T01:24:54.888Z,66.10
2017-06-23T01:27:21.122Z,66.00
2017-06-23T01:29:47.383Z,66.60
2017-06-23T01:32:13.772Z,66.20
2017-06-23T01:34:40.770Z,65.90
2017-06-23T01:37:07.020Z,66.60
2017-06-23T01:39:33.442Z,66.00
2017-06-23T01:41:59.773Z,65.60
2017-06-23T01:44:26.061Z,66.40
2017-06-23T01:46:52.487Z,66.80
2017-06-23T01:49:18.755Z,66.30
2017-06-23T01:51:45.028Z,66.90
2017-06-23T01:54:11.444Z,67.30
2017-06-23T01:56:37.691Z,67.80
2017-06-23T01:59:03.931Z,68.00
2017-06-23T02:01:30.332Z,67.40
2017-06-23T02:03:56.593Z,67.10
2017-06-23T02:06:22.847Z,67.10
2017-06-23T02:08:49.274Z,68.60
2017-06-23T02:11:15.507Z,69.20
2017-06-23T02:13:41.771Z,68.70
2017-06-23T02:17:36.561Z,68.20
2017-06-23T02:20:02.803Z,67.50
2017-06-23T02:22:29.042Z,69.00
2017-06-23T02:24:55.433Z,68.80
2017-06-23T02:27:21.692Z,68.20
2017-06-23T02:29:47.931Z,69.00
2017-06-23T02:32:14.526Z,69.00
2017-06-23T02:34:40.778Z,69.70
2017-06-23T02:37:07.520Z,70.10
2017-06-23T02:39:34.118Z,71.10
2017-06-23T02:42:00.372Z,71.10
2017-06-23T02:44:26.639Z,71.10
2017-06-23T02:46:53.050Z,71.40
2017-06-23T02:49:19.300Z,71.30
2017-06-23T02:51:45.548Z,71.80
2017-06-23T02:54:11.932Z,72.00
2017-06-23T02:56:38.182Z,72.50
2017-06-23T02:59:04.446Z,73.20
2017-06-23T03:01:30.811Z,72.30
2017-06-23T03:03:57.090Z,71.80
2017-06-23T03:06:23.337Z,72.40
2017-06-23T03:08:49.831Z,72.50
2017-06-23T03:11:16.097Z,73.10
2017-06-23T03:13:42.335Z,73.80
2017-06-23T03:17:36.514Z,73.50
2017-06-23T03:20:02.783Z,73.90
2017-06-23T03:22:29.024Z,73.70
2017-06-23T03:24:55.424Z,73.90
2017-06-23T03:27:21.654Z,74.80
2017-06-23T03:29:47.889Z,74.90
2017-06-23T03:32:14.259Z,75.20
2017-06-23T03:34:40.515Z,75.50
2017-06-23T03:37:06.782Z,75.80
2017-06-23T03:39:34.621Z,76.20
2017-06-23T03:42:00.863Z,76.70
2017-06-23T03:44:27.126Z,75.90
2017-06-23T03:46:53.540Z,75.70
2017-06-23T03:49:19.807Z,76.70
2017-06-23T03:51:46.060Z,76.70
2017-06-23T03:54:12.458Z,76.10
2017-06-23T03:56:38.712Z,76.40
2017-06-23T03:59:04.959Z,76.60
2017-06-23T04:01:31.387Z,76.40
2017-06-23T04:03:57.620Z,76.60
2017-06-23T04:06:23.872Z,76.40
2017-06-23T04:08:50.336Z,77.00
2017-06-23T04:11:16.584Z,77.00
2017-06-23T04:13:42.882Z,77.20
2017-06-23T04:17:36.188Z,77.60
2017-06-23T04:20:02.443Z,76.20
2017-06-23T04:22:28.704Z,76.80
2017-06-23T04:24:55.092Z,77.60
2017-06-23T04:27:21.348Z,77.30
2017-06-23T04:29:47.599Z,77.10
2017-06-23T04:32:13.966Z,77.50
2017-06-23T04:34:40.220Z,77.40
2017-06-23T04:37:06.489Z,77.10
2017-06-23T04:39:32.950Z,75.70
2017-06-23T04:42:00.315Z,75.40
2017-06-23T04:44:26.583Z,76.00
2017-06-23T04:46:52.975Z,75.40
2017-06-23T04:49:19.227Z,74.50
2017-06-23T04:51:45.472Z,74.50
2017-06-23T04:54:11.836Z,74.80
2017-06-23T04:56:38.115Z,74.50
2017-06-23T04:59:04.354Z,75.60
2017-06-23T05:01:30.761Z,75.50
2017-06-23T05:03:58.019Z,75.20
2017-06-23T05:06:24.472Z,75.50
2017-06-23T05:08:50.938Z,75.30
2017-06-23T05:11:17.212Z,74.50
2017-06-23T05:13:43.533Z,74.40
2017-06-23T05:17:35.599Z,74.60
2017-06-23T05:20:01.884Z,73.60
2017-06-23T05:22:28.142Z,72.00
2017-06-23T05:24:54.535Z,72.00
2017-06-23T05:27:20.802Z,71.70
2017-06-23T05:29:47.112Z,71.50
2017-06-23T05:32:13.484Z,71.40
2017-06-23T05:34:39.773Z,71.60
2017-06-23T05:37:06.014Z,70.90
2017-06-23T05:39:32.414Z,71.10
2017-06-23T05:41:59.727Z,70.30
2017-06-23T05:44:25.993Z,69.30
2017-06-23T05:46:59.688Z,69.40
2017-06-23T05:49:25.934Z,69.20
2017-06-23T05:51:52.172Z,69.50
2017-06-23T05:54:18.583Z,69.50
2017-06-23T05:56:44.814Z,70.20
2017-06-23T05:59:11.107Z,69.60
2017-06-23T06:01:37.486Z,70.10
2017-06-23T06:04:03.744Z,68.20
2017-06-23T06:06:30.001Z,67.00
2017-06-23T06:08:56.375Z,66.80
2017-06-23T06:11:22.614Z,67.50
2017-06-23T06:13:48.871Z,66.70
2017-06-23T06:17:36.370Z,65.90
2017-06-23T06:20:02.634Z,65.60
2017-06-23T06:22:28.881Z,64.80
2017-06-23T06:24:55.283Z,64.70
2017-06-23T06:27:21.620Z,65.00
2017-06-23T06:29:47.868Z,67.00
2017-06-23T06:32:14.261Z,67.30
2017-06-23T06:34:40.511Z,67.90
2017-06-23T06:37:06.750Z,68.10
2017-06-23T06:39:33.138Z,67.10
2017-06-23T06:42:01.194Z,68.20
2017-06-23T06:44:27.480Z,67.50
2017-06-23T06:46:53.947Z,67.60
2017-06-23T06:49:20.256Z,66.80
2017-06-23T06:51:46.488Z,66.90
2017-06-23T06:54:12.862Z,66.70
2017-06-23T06:56:39.121Z,66.10
2017-06-23T06:59:05.381Z,67.00
2017-06-23T07:01:31.775Z,67.10
2017-06-23T07:03:58.031Z,68.40
2017-06-23T07:06:24.294Z,68.90
2017-06-23T07:08:50.688Z,68.30
2017-06-23T07:11:16.951Z,68.50
2017-06-23T07:13:43.219Z,68.50
2017-06-23T07:17:35.331Z,69.00
2017-06-23T07:20:01.575Z,68.40
2017-06-23T07:22:27.840Z,69.50
2017-06-23T07:24:54.366Z,70.00
2017-06-23T07:27:20.611Z,69.10
2017-06-23T07:29:46.882Z,69.50
2017-06-23T07:32:13.260Z,69.20
2017-06-23T07:34:39.498Z,70.60
2017-06-23T07:37:05.743Z,68.70
2017-06-23T07:39:32.122Z,69.90
2017-06-23T07:41:58.427Z,69.10
2017-06-23T07:44:26.063Z,68.50
2017-06-23T07:46:52.488Z,67.90
2017-06-23T07:49:18.778Z,65.50
2017-06-23T07:51:45.012Z,62.30
2017-06-23T07:54:11.408Z,61.40
2017-06-23T07:56:37.646Z,60.50
2017-06-23T07:59:03.900Z,61.20
2017-06-23T08:01:30.304Z,60.00
2017-06-23T08:03:56.553Z,59.70
2017-06-23T08:06:23.586Z,59.50
2017-06-23T08:08:50.721Z,57.70
2017-06-23T08:11:16.967Z,57.60
2017-06-23T08:13:43.959Z,56.50
2017-06-23T08:17:35.932Z,56.30
2017-06-23T08:20:02.202Z,57.20
2017-06-23T08:22:28.474Z,57.10
2017-06-23T08:24:54.883Z,56.80
2017-06-23T08:27:21.150Z,54.90
2017-06-23T08:29:47.384Z,54.50
2017-06-23T08:32:13.771Z,55.40
2017-06-23T08:34:40.031Z,53.50
2017-06-23T08:37:06.312Z,54.00
2017-06-23T08:39:32.715Z,53.40
2017-06-23T08:41:58.971Z,54.20
2017-06-23T08:44:27.959Z,53.50
2017-06-23T08:46:54.319Z,53.00
2017-06-23T08:49:20.583Z,52.30
2017-06-23T08:51:46.847Z,51.60
2017-06-23T08:54:13.324Z,52.00
2017-06-23T08:56:39.582Z,52.70
2017-06-23T08:59:05.855Z,50.60
2017-06-23T09:01:32.237Z,50.90
2017-06-23T09:03:59.255Z,51.50
2017-06-23T09:06:25.533Z,50.50
2017-06-23T09:08:51.929Z,50.00
2017-06-23T09:11:18.233Z,50.70
2017-06-23T09:13:44.538Z,50.70
2017-06-23T09:17:35.603Z,52.10
2017-06-23T09:20:01.872Z,52.50
2017-06-23T09:22:28.141Z,52.30
2017-06-23T09:24:54.552Z,52.10
2017-06-23T09:27:20.807Z,52.50
2017-06-23T09:29:47.059Z,51.60
2017-06-23T09:32:13.483Z,53.40
2017-06-23T09:34:39.715Z,53.10
2017-06-23T09:37:05.987Z,53.20
2017-06-23T09:39:32.397Z,52.90
2017-06-23T09:41:58.638Z,53.70
2017-06-23T09:44:24.906Z,53.90
2017-06-23T09:46:51.575Z,53.60
2017-06-23T09:49:17.826Z,54.00
2017-06-23T09:51:44.108Z,53.80
2017-06-23T09:54:10.568Z,52.50
2017-06-23T09:56:36.814Z,51.50
2017-06-23T09:59:03.103Z,51.30
2017-06-23T10:01:29.554Z,51.10
2017-06-23T10:03:56.586Z,50.70
2017-06-23T10:06:22.829Z,49.90
2017-06-23T10:08:49.218Z,47.00
2017-06-23T10:11:15.471Z,46.10
2017-06-23T10:13:41.717Z,45.50
2017-06-23T10:17:35.257Z,44.20
2017-06-23T10:20:01.593Z,45.50
2017-06-23T10:22:27.854Z,44.50
2017-06-23T10:24:54.227Z,43.40
2017-06-23T10:27:20.527Z,43.00
2017-06-23T10:29:46.759Z,44.40
2017-06-23T10:32:13.176Z,43.80
2017-06-23T10:34:39.419Z,43.60
2017-06-23T10:37:05.666Z,43.40
2017-06-23T10:39:32.036Z,42.60
2017-06-23T10:41:58.339Z,39.50
2017-06-23T10:44:24.584Z,40.70
2017-06-23T10:46:54.415Z,40.20
2017-06-23T10:49:20.834Z,40.80
2017-06-23T10:51:47.128Z,41.10
2017-06-23T10:54:14.451Z,41.10
2017-06-23T10:56:40.682Z,41.80
2017-06-23T10:59:06.918Z,43.20
2017-06-23T11:01:34.841Z,40.50
2017-06-23T11:04:02.605Z,39.00
2017-06-23T11:06:30.207Z,38.50
2017-06-23T11:08:56.635Z,40.30
2017-06-23T11:11:22.864Z,41.50
2017-06-23T11:13:49.099Z,40.30
2017-06-23T11:17:36.430Z,40.70
2017-06-23T11:20:02.706Z,41.30
2017-06-23T11:22:28.961Z,40.50
2017-06-23T11:24:55.369Z,39.90
2017-06-23T11:27:21.592Z,39.90
2017-06-23T11:29:47.835Z,41.40
2017-06-23T11:32:14.232Z,40.80
2017-06-23T11:34:40.472Z,37.90
2017-06-23T11:37:06.751Z,38.50
2017-06-23T11:39:33.112Z,38.70
2017-06-23T11:41:59.366Z,37.80
2017-06-23T11:44:25.614Z,38.60
2017-06-23T11:46:52.356Z,39.60
2017-06-23T11:49:18.681Z,38.70
2017-06-23T11:51:44.933Z,38.50
2017-06-23T11:54:11.317Z,39.30
2017-06-23T11:56:37.557Z,37.60
2017-06-23T11:59:03.820Z,38.00
2017-06-23T12:01:30.218Z,38.40
2017-06-23T12:03:56.474Z,39.20
2017-06-23T12:06:22.725Z,40.50
2017-06-23T12:08:49.123Z,39.00
2017-06-23T12:11:15.362Z,40.10
2017-06-23T12:13:42.359Z,37.90
2017-06-23T12:17:36.190Z,37.50
2017-06-23T12:20:02.456Z,37.90
2017-06-23T12:22:28.718Z,36.70
2017-06-23T12:24:55.112Z,35.30
2017-06-23T12:27:21.356Z,34.80
2017-06-23T12:29:47.600Z,34.20
2017-06-23T12:32:13.988Z,34.30
2017-06-23T12:34:40.264Z,33.80
2017-06-23T12:37:06.524Z,35.30
2017-06-23T12:39:32.931Z,35.30
2017-06-23T12:41:59.162Z,36.00
2017-06-23T12:44:25.485Z,35.30
2017-06-23T12:46:53.555Z,35.20
2017-06-23T12:49:19.811Z,38.20
2017-06-23T12:51:46.061Z,39.50
2017-06-23T12:54:12.719Z,41.60
2017-06-23T12:56:38.960Z,40.80
2017-06-23T12:59:05.205Z,41.10
2017-06-23T13:01:31.607Z,40.90
2017-06-23T13:03:57.859Z,39.70
2017-06-23T13:06:24.105Z,40.10
2017-06-23T13:08:50.504Z,40.10
2017-06-23T13:11:16.764Z,40.50
2017-06-23T13:13:43.001Z,39.00
2017-06-23T13:17:36.175Z,37.70
2017-06-23T13:20:04.957Z,38.00
2017-06-23T13:22:32.511Z,37.90
2017-06-23T13:24:58.878Z,38.40
2017-06-23T13:27:25.799Z,37.90
2017-06-23T13:29:53.231Z,38.00
2017-06-23T13:32:20.256Z,38.50
2017-06-23T13:34:47.880Z,37.80
2017-06-23T13:37:15.015Z,38.80
2017-06-23T13:39:43.575Z,39.20
2017-06-23T13:42:10.803Z,36.90
2017-06-23T13:44:37.066Z,38.00
2017-06-23T13:47:06.229Z,37.90
2017-06-23T13:49:33.002Z,38.10
2017-06-23T13:51:59.252Z,38.40
2017-06-23T13:54:25.650Z,39.10
2017-06-23T13:56:51.916Z,38.60
2017-06-23T13:59:18.162Z,37.10
2017-06-23T14:01:44.639Z,39.50
2017-06-23T14:04:11.040Z,40.80
2017-06-23T14:06:37.296Z,39.10
2017-06-23T14:09:03.787Z,38.60
2017-06-23T14:11:30.031Z,38.10
2017-06-23T14:13:56.264Z,39.60
2017-06-23T14:17:37.664Z,37.30
2017-06-23T14:20:03.935Z,37.10
2017-06-23T14:22:30.197Z,37.30
2017-06-23T14:24:56.722Z,37.80
2017-06-23T14:27:23.008Z,38.50
2017-06-23T14:29:49.288Z,38.00
2017-06-23T14:32:15.683Z,38.70
2017-06-23T14:34:41.955Z,39.20
2017-06-23T14:37:08.213Z,37.20
2017-06-23T14:39:34.642Z,36.40
2017-06-23T14:42:02.213Z,37.20
2017-06-23T14:44:28.610Z,36.40
2017-06-23T14:46:55.064Z,37.80
2017-06-23T14:49:24.759Z,38.10
2017-06-23T14:51:51.055Z,38.50
2017-06-23T14:54:17.460Z,38.10
2017-06-23T14:56:43.756Z,39.00
2017-06-23T15:01:52.500Z,40.90
2017-06-23T15:04:18.751Z,39.60
2017-06-23T15:06:45.021Z,41.20
2017-06-23T15:09:11.460Z,41.30
2017-06-23T15:11:37.775Z,41.90
2017-06-23T15:14:04.061Z,41.40
2017-06-23T15:17:35.645Z,41.70
2017-06-23T15:20:01.941Z,43.10
2017-06-23T15:22:28.192Z,43.80
2017-06-23T15:24:54.587Z,43.60
2017-06-23T15:27:20.852Z,43.50
2017-06-23T15:29:47.135Z,42.10
2017-06-23T15:32:13.532Z,41.50
2017-06-23T15:34:39.822Z,42.30
2017-06-23T15:37:06.115Z,42.40
2017-06-23T15:39:32.539Z,43.60
2017-06-23T15:41:58.836Z,45.50
2017-06-23T15:44:25.088Z,43.80
2017-06-23T15:46:51.490Z,43.40
2017-06-23T15:49:17.748Z,44.20
2017-06-23T15:51:44.954Z,43.80
2017-06-23T15:54:11.359Z,45.10
2017-06-23T15:56:37.606Z,45.30
2017-06-23T15:59:03.871Z,45.40
2017-06-23T16:01:30.500Z,45.10
2017-06-23T16:03:56.755Z,45.10
2017-06-23T16:06:23.048Z,44.20
2017-06-23T16:08:49.463Z,44.10
2017-06-23T16:11:15.727Z,44.20
2017-06-23T16:13:41.983Z,45.10
2017-06-23T16:17:35.235Z,44.50
2017-06-23T16:20:01.476Z,45.00
2017-06-23T16:22:27.716Z,45.00
2017-06-23T16:24:54.459Z,44.70
2017-06-23T16:27:20.711Z,46.10
2017-06-23T16:29:47.039Z,45.10
2017-06-23T16:32:13.480Z,45.70
2017-06-23T16:34:39.767Z,45.20
2017-06-23T16:37:06.018Z,45.80
2017-06-23T16:39:32.482Z,45.80
2017-06-23T16:42:00.542Z,46.20
2017-06-23T16:44:26.805Z,46.20
2017-06-23T16:46:53.175Z,46.80
2017-06-23T16:49:19.458Z,46.20
2017-06-23T16:51:47.226Z,46.10
2017-06-23T16:54:13.619Z,46.70
2017-06-23T16:56:39.884Z,47.30
2017-06-23T16:59:06.114Z,47.80
2017-06-23T17:01:32.547Z,47.80
2017-06-23T17:03:58.806Z,48.70
2017-06-23T17:06:25.087Z,48.80
2017-06-23T17:08:51.527Z,48.50
2017-06-23T17:11:17.787Z,47.70
2017-06-23T17:13:44.078Z,47.40
2017-06-23T17:17:36.604Z,47.70
2017-06-23T17:20:02.865Z,46.90
2017-06-23T17:22:29.155Z,47.10
2017-06-23T17:24:55.843Z,45.90
2017-06-23T17:27:22.100Z,46.70
2017-06-23T17:29:48.346Z,46.40
2017-06-23T17:32:14.743Z,47.10
2017-06-23T17:34:41.039Z,46.80
2017-06-23T17:37:07.419Z,46.80
2017-06-23T17:39:34.067Z,46.60
2017-06-23T17:42:00.526Z,46.10
2017-06-23T17:44:26.860Z,46.10
2017-06-23T17:46:53.369Z,45.50
2017-06-23T17:49:19.658Z,44.80
2017-06-23T17:51:46.535Z,45.40
2017-06-23T17:54:19.723Z,45.30
2017-06-23T17:56:45.988Z,44.60
2017-06-23T17:59:12.248Z,43.80
2017-06-23T18:01:38.668Z,44.60
2017-06-23T18:04:04.906Z,44.60
2017-06-23T18:06:31.176Z,44.70
2017-06-23T18:08:57.552Z,44.30
2017-06-23T18:11:23.795Z,44.00
2017-06-23T18:13:50.087Z,43.90
2017-06-23T18:17:36.826Z,45.70
2017-06-23T18:20:03.070Z,45.20
2017-06-23T18:22:29.407Z,44.60
2017-06-23T18:24:55.807Z,44.70
2017-06-23T18:27:22.060Z,45.40
2017-06-23T18:29:48.347Z,45.60
2017-06-23T18:32:14.749Z,45.20
2017-06-23T18:34:40.997Z,45.10
2017-06-23T18:37:07.266Z,46.30
2017-06-23T18:39:33.690Z,45.90
2017-06-23T18:41:59.924Z,45.60
2017-06-23T18:44:26.162Z,46.30
2017-06-23T18:46:52.602Z,46.20
2017-06-23T18:49:18.903Z,45.90
2017-06-23T18:51:45.143Z,46.20
2017-06-23T18:54:12.477Z,45.80
2017-06-23T18:56:38.731Z,45.90
2017-06-23T18:59:04.989Z,46.60
2017-06-23T19:01:31.503Z,47.20
2017-06-23T19:03:57.759Z,47.00
2017-06-23T19:06:24.012Z,47.50
2017-06-23T19:08:50.406Z,47.20
2017-06-23T19:11:16.695Z,47.00
2017-06-23T19:13:42.967Z,46.80
2017-06-23T19:17:36.195Z,47.00
2017-06-23T19:20:03.230Z,47.90
2017-06-23T19:22:29.523Z,47.20
2017-06-23T19:24:55.959Z,47.60
2017-06-23T19:27:22.247Z,48.60
2017-06-23T19:29:48.506Z,48.30
2017-06-23T19:32:14.935Z,49.20
2017-06-23T19:34:41.179Z,48.10
2017-06-23T19:37:07.459Z,47.90
2017-06-23T19:39:33.874Z,48.70
2017-06-23T19:42:00.131Z,48.50
2017-06-23T19:44:26.383Z,48.70
2017-06-23T19:46:52.804Z,47.90
2017-06-23T19:49:19.068Z,47.70
2017-06-23T19:51:45.319Z,47.30
2017-06-23T19:54:11.742Z,47.70
2017-06-23T19:56:41.222Z,47.20
2017-06-23T19:59:07.478Z,47.90
2017-06-23T20:01:33.928Z,47.50
2017-06-23T20:04:00.212Z,47.00
2017-06-23T20:06:26.450Z,47.40
2017-06-23T20:08:52.851Z,48.80
2017-06-23T20:11:19.133Z,47.90
2017-06-23T20:13:45.407Z,47.70
2017-06-23T20:17:35.802Z,47.80
2017-06-23T20:20:02.295Z,48.60
2017-06-23T20:22:28.523Z,49.00
2017-06-23T20:24:54.927Z,49.00
2017-06-23T20:27:21.237Z,48.90
2017-06-23T20:29:47.501Z,48.80
2017-06-23T20:32:13.903Z,49.20
2017-06-23T20:34:40.138Z,49.60
2017-06-23T20:37:06.391Z,49.20
2017-06-23T20:39:32.794Z,49.20
2017-06-23T20:41:59.034Z,49.90
2017-06-23T20:44:25.300Z,50.00
2017-06-23T20:46:51.711Z,50.10
2017-06-23T20:49:17.955Z,50.40
2017-06-23T20:51:44.219Z,50.90
2017-06-23T20:54:10.615Z,49.90
2017-06-23T20:56:36.880Z,50.70
2017-06-23T20:59:04.062Z,50.00
2017-06-23T21:01:30.465Z,50.90
2017-06-23T21:03:56.741Z,50.40
2017-06-23T21:06:22.985Z,51.20
2017-06-23T21:08:49.427Z,50.80
2017-06-23T21:11:15.673Z,51.20
2017-06-23T21:13:41.937Z,51.10
2017-06-23T21:17:36.155Z,51.70
2017-06-23T21:20:02.440Z,51.10
2017-06-23T21:22:28.692Z,51.20
2017-06-23T21:24:55.107Z,51.50
2017-06-23T21:27:21.435Z,51.60
2017-06-23T21:29:47.734Z,52.00
2017-06-23T21:32:14.126Z,51.80
2017-06-23T21:34:40.424Z,51.90
2017-06-23T21:37:06.702Z,52.00
2017-06-23T21:39:33.930Z,53.20
2017-06-23T21:42:00.197Z,53.10
2017-06-23T21:44:26.476Z,53.20
2017-06-23T21:46:52.858Z,53.50
2017-06-23T21:49:19.139Z,52.90
2017-06-23T21:51:45.375Z,54.00
2017-06-23T21:54:11.796Z,53.70
2017-06-23T21:56:38.060Z,54.60
2017-06-23T21:59:05.756Z,55.00
2017-06-23T22:01:32.158Z,55.00
2017-06-23T22:03:59.192Z,55.40
2017-06-23T22:06:25.468Z,54.80
2017-06-23T22:08:51.953Z,55.00
2017-06-23T22:11:18.223Z,55.00
2017-06-23T22:13:44.502Z,55.40
2017-06-23T22:17:36.095Z,55.00
2017-06-23T22:20:02.383Z,55.50
2017-06-23T22:22:28.636Z,56.50
2017-06-23T22:24:55.020Z,56.20
2017-06-23T22:27:21.267Z,56.40
2017-06-23T22:29:47.533Z,56.70
2017-06-23T22:32:13.950Z,56.30
2017-06-23T22:34:40.198Z,56.80
2017-06-23T22:37:06.450Z,56.60
2017-06-23T22:39:32.945Z,56.40
2017-06-23T22:41:59.188Z,57.10
2017-06-23T22:44:25.426Z,56.70
2017-06-23T22:46:51.840Z,56.40
2017-06-23T22:49:18.099Z,56.70
2017-06-23T22:51:44.351Z,56.40
2017-06-23T22:54:10.829Z,56.80
2017-06-23T22:56:37.096Z,57.50
2017-06-23T22:59:03.342Z,57.10
2017-06-23T23:01:30.441Z,56.40
2017-06-23T23:03:56.723Z,57.30
2017-06-23T23:06:22.984Z,56.30
2017-06-23T23:08:49.350Z,57.30
2017-06-23T23:11:15.584Z,57.70
2017-06-23T23:13:41.866Z,58.00
2017-06-23T23:17:36.605Z,57.20
2017-06-23T23:20:02.861Z,57.30
2017-06-23T23:22:29.118Z,57.30
2017-06-23T23:24:55.523Z,57.40
2017-06-23T23:27:21.779Z,57.00
2017-06-23T23:29:48.021Z,57.90
2017-06-23T23:32:14.461Z,57.90
2017-06-23T23:34:40.712Z,57.40
2017-06-23T23:37:06.945Z,57.90
2017-06-23T23:39:33.359Z,58.00
2017-06-23T23:41:59.590Z,57.40
2017-06-23T23:44:25.855Z,58.10
2017-06-23T23:46:52.247Z,58.10
2017-06-23T23:49:18.495Z,57.80
2017-06-23T23:51:44.767Z,57.80
2017-06-23T23:54:11.183Z,58.00
2017-06-23T23:56:37.487Z,58.30
2017-06-23T23:59:03.740Z,58.90
